sensor_id;sensor_type;location;lat;lon;timestamp;temperature;humidity
66337;SHT30;53139;45.576;5.304;2023-02-15T00:02:54;2.32;79.34
66337;SHT30;53139;45.576;5.304;2023-02-15T00:05:56;2.15;78.28
66337;SHT30;53139;45.576;5.304;2023-02-15T00:08:58;2.05;79.76
66337;SHT30;53139;45.576;5.304;2023-02-15T00:11:58;1.82;81.82
66337;SHT30;53139;45.576;5.304;2023-02-15T00:14:59;1.77;80.50
66337;SHT30;53139;45.576;5.304;2023-02-15T00:17:59;2.08;81.64
66337;SHT30;53139;45.576;5.304;2023-02-15T00:21:04;1.67;80.55
66337;SHT30;53139;45.576;5.304;2023-02-15T00:24:07;1.61;82.38
66337;SHT30;53139;45.576;5.304;2023-02-15T00:27:08;1.70;84.12
66337;SHT30;53139;45.576;5.304;2023-02-15T00:30:09;1.89;83.60
66337;SHT30;53139;45.576;5.304;2023-02-15T00:33:10;1.79;83.98
66337;SHT30;53139;45.576;5.304;2023-02-15T00:36:10;1.71;81.61
66337;SHT30;53139;45.576;5.304;2023-02-15T00:39:11;1.86;83.59
66337;SHT30;53139;45.576;5.304;2023-02-15T00:42:12;1.78;84.83
66337;SHT30;53139;45.576;5.304;2023-02-15T00:45:13;1.99;83.42
66337;SHT30;53139;45.576;5.304;2023-02-15T00:48:13;1.72;80.84
66337;SHT30;53139;45.576;5.304;2023-02-15T00:51:13;1.44;82.91
66337;SHT30;53139;45.576;5.304;2023-02-15T00:54:14;1.51;82.55
66337;SHT30;53139;45.576;5.304;2023-02-15T00:57:14;1.39;84.85
66337;SHT30;53139;45.576;5.304;2023-02-15T01:00:15;1.22;83.21
66337;SHT30;53139;45.576;5.304;2023-02-15T01:03:17;1.05;82.06
66337;SHT30;53139;45.576;5.304;2023-02-15T01:06:17;1.05;82.27
66337;SHT30;53139;45.576;5.304;2023-02-15T01:09:18;1.12;83.13
66337;SHT30;53139;45.576;5.304;2023-02-15T01:12:18;1.27;86.20
66337;SHT30;53139;45.576;5.304;2023-02-15T01:15:19;1.47;85.17
66337;SHT30;53139;45.576;5.304;2023-02-15T01:18:19;1.36;82.17
66337;SHT30;53139;45.576;5.304;2023-02-15T01:21:22;1.17;82.23
66337;SHT30;53139;45.576;5.304;2023-02-15T01:24:22;0.82;83.24
66337;SHT30;53139;45.576;5.304;2023-02-15T01:27:23;0.71;82.24
66337;SHT30;53139;45.576;5.304;2023-02-15T01:30:23;0.64;83.88
66337;SHT30;53139;45.576;5.304;2023-02-15T01:33:24;0.75;83.15
66337;SHT30;53139;45.576;5.304;2023-02-15T01:36:24;0.95;84.36
66337;SHT30;53139;45.576;5.304;2023-02-15T01:39:25;1.32;85.40
66337;SHT30;53139;45.576;5.304;2023-02-15T01:42:26;1.86;84.77
66337;SHT30;53139;45.576;5.304;2023-02-15T01:45:30;1.91;84.05
66337;SHT30;53139;45.576;5.304;2023-02-15T01:48:31;1.94;83.80
66337;SHT30;53139;45.576;5.304;2023-02-15T01:51:34;1.86;84.38
66337;SHT30;53139;45.576;5.304;2023-02-15T01:54:38;1.85;84.20
66337;SHT30;53139;45.576;5.304;2023-02-15T01:57:39;1.83;84.10
66337;SHT30;53139;45.576;5.304;2023-02-15T02:00:41;1.94;83.24
66337;SHT30;53139;45.576;5.304;2023-02-15T02:06:59;1.82;83.45
66337;SHT30;53139;45.576;5.304;2023-02-15T02:09:59;1.88;83.51
66337;SHT30;53139;45.576;5.304;2023-02-15T02:13:03;1.79;83.30
66337;SHT30;53139;45.576;5.304;2023-02-15T02:16:15;1.75;83.76
66337;SHT30;53139;45.576;5.304;2023-02-15T02:23:05;1.64;84.27
66337;SHT30;53139;45.576;5.304;2023-02-15T02:39:30;1.34;86.05
66337;SHT30;53139;45.576;5.304;2023-02-15T02:42:43;1.43;85.17
66337;SHT30;53139;45.576;5.304;2023-02-15T02:45:55;1.47;84.87
66337;SHT30;53139;45.576;5.304;2023-02-15T02:48:57;1.27;84.82
66337;SHT30;53139;45.576;5.304;2023-02-15T02:51:59;1.62;85.75
66337;SHT30;53139;45.576;5.304;2023-02-15T02:55:02;1.55;85.11
66337;SHT30;53139;45.576;5.304;2023-02-15T02:58:18;1.72;84.74
66337;SHT30;53139;45.576;5.304;2023-02-15T03:01:37;1.99;84.95
66337;SHT30;53139;45.576;5.304;2023-02-15T03:04:45;1.85;85.32
66337;SHT30;53139;45.576;5.304;2023-02-15T03:07:49;1.74;86.41
66337;SHT30;53139;45.576;5.304;2023-02-15T03:10:58;1.51;86.63
66337;SHT30;53139;45.576;5.304;2023-02-15T03:13:59;1.39;86.11
66337;SHT30;53139;45.576;5.304;2023-02-15T03:17:00;1.26;86.62
66337;SHT30;53139;45.576;5.304;2023-02-15T03:20:11;1.09;85.72
66337;SHT30;53139;45.576;5.304;2023-02-15T03:23:17;0.85;86.78
66337;SHT30;53139;45.576;5.304;2023-02-15T03:26:20;0.99;86.26
66337;SHT30;53139;45.576;5.304;2023-02-15T03:29:25;0.84;87.28
66337;SHT30;53139;45.576;5.304;2023-02-15T03:32:28;0.47;87.53
66337;SHT30;53139;45.576;5.304;2023-02-15T03:39:36;0.32;86.57
66337;SHT30;53139;45.576;5.304;2023-02-15T03:42:39;0.33;87.81
66337;SHT30;53139;45.576;5.304;2023-02-15T03:45:40;0.77;88.68
66337;SHT30;53139;45.576;5.304;2023-02-15T03:48:58;0.74;89.41
66337;SHT30;53139;45.576;5.304;2023-02-15T03:52:03;1.15;89.18
66337;SHT30;53139;45.576;5.304;2023-02-15T03:55:05;1.32;88.43
66337;SHT30;53139;45.576;5.304;2023-02-15T03:58:05;1.27;87.54
66337;SHT30;53139;45.576;5.304;2023-02-15T04:01:37;1.12;87.15
66337;SHT30;53139;45.576;5.304;2023-02-15T04:04:47;1.19;87.34
66337;SHT30;53139;45.576;5.304;2023-02-15T04:07:48;1.70;89.63
66337;SHT30;53139;45.576;5.304;2023-02-15T04:10:48;1.54;88.90
66337;SHT30;53139;45.576;5.304;2023-02-15T04:13:56;1.58;88.95
66337;SHT30;53139;45.576;5.304;2023-02-15T04:16:56;2.05;89.38
66337;SHT30;53139;45.576;5.304;2023-02-15T04:19:57;2.51;86.89
66337;SHT30;53139;45.576;5.304;2023-02-15T04:23:16;2.06;87.77
66337;SHT30;53139;45.576;5.304;2023-02-15T04:26:35;1.82;87.48
66337;SHT30;53139;45.576;5.304;2023-02-15T04:29:35;1.68;88.91
66337;SHT30;53139;45.576;5.304;2023-02-15T04:32:36;1.54;88.44
66337;SHT30;53139;45.576;5.304;2023-02-15T04:35:36;1.61;89.25
66337;SHT30;53139;45.576;5.304;2023-02-15T04:38:37;1.72;89.77
66337;SHT30;53139;45.576;5.304;2023-02-15T04:41:37;1.74;88.85
66337;SHT30;53139;45.576;5.304;2023-02-15T04:44:37;1.32;88.79
66337;SHT30;53139;45.576;5.304;2023-02-15T04:47:38;1.47;90.17
66337;SHT30;53139;45.576;5.304;2023-02-15T04:50:38;1.00;87.26
66337;SHT30;53139;45.576;5.304;2023-02-15T04:53:39;1.05;89.51
66337;SHT30;53139;45.576;5.304;2023-02-15T04:56:39;0.57;88.76
66337;SHT30;53139;45.576;5.304;2023-02-15T04:59:40;0.61;87.76
66337;SHT30;53139;45.576;5.304;2023-02-15T05:02:40;0.37;89.65
66337;SHT30;53139;45.576;5.304;2023-02-15T05:05:40;0.47;88.18
66337;SHT30;53139;45.576;5.304;2023-02-15T05:08:41;0.49;88.20
66337;SHT30;53139;45.576;5.304;2023-02-15T05:11:42;0.33;86.86
66337;SHT30;53139;45.576;5.304;2023-02-15T05:14:42;0.61;89.50
66337;SHT30;53139;45.576;5.304;2023-02-15T05:17:42;0.89;90.09
66337;SHT30;53139;45.576;5.304;2023-02-15T05:20:43;0.92;89.34
66337;SHT30;53139;45.576;5.304;2023-02-15T05:23:43;0.99;90.47
66337;SHT30;53139;45.576;5.304;2023-02-15T05:26:44;1.02;91.66
66337;SHT30;53139;45.576;5.304;2023-02-15T05:30:03;0.91;90.67
66337;SHT30;53139;45.576;5.304;2023-02-15T05:33:03;0.89;91.27
66337;SHT30;53139;45.576;5.304;2023-02-15T05:36:04;0.78;90.07
66337;SHT30;53139;45.576;5.304;2023-02-15T05:39:05;0.77;89.59
66337;SHT30;53139;45.576;5.304;2023-02-15T05:42:07;0.57;89.24
66337;SHT30;53139;45.576;5.304;2023-02-15T05:45:07;0.74;90.22
66337;SHT30;53139;45.576;5.304;2023-02-15T05:48:07;0.79;90.78
66337;SHT30;53139;45.576;5.304;2023-02-15T05:51:12;0.89;91.16
66337;SHT30;53139;45.576;5.304;2023-02-15T05:54:14;0.79;90.56
66337;SHT30;53139;45.576;5.304;2023-02-15T05:57:14;0.64;90.40
66337;SHT30;53139;45.576;5.304;2023-02-15T06:00:18;0.57;89.92
66337;SHT30;53139;45.576;5.304;2023-02-15T06:03:18;0.62;91.11
66337;SHT30;53139;45.576;5.304;2023-02-15T06:06:19;0.87;91.13
66337;SHT30;53139;45.576;5.304;2023-02-15T06:09:19;1.13;92.59
66337;SHT30;53139;45.576;5.304;2023-02-15T06:12:19;1.06;91.29
66337;SHT30;53139;45.576;5.304;2023-02-15T06:15:20;0.92;91.00
66337;SHT30;53139;45.576;5.304;2023-02-15T06:18:21;0.93;92.62
66337;SHT30;53139;45.576;5.304;2023-02-15T06:21:21;0.98;91.46
66337;SHT30;53139;45.576;5.304;2023-02-15T06:24:21;0.85;90.79
66337;SHT30;53139;45.576;5.304;2023-02-15T06:27:22;0.56;89.22
66337;SHT30;53139;45.576;5.304;2023-02-15T06:30:22;0.34;91.72
66337;SHT30;53139;45.576;5.304;2023-02-15T06:33:24;0.20;88.98
66337;SHT30;53139;45.576;5.304;2023-02-15T06:36:24;0.15;91.08
66337;SHT30;53139;45.576;5.304;2023-02-15T06:39:24;0.51;91.53
66337;SHT30;53139;45.576;5.304;2023-02-15T06:42:25;0.64;90.57
66337;SHT30;53139;45.576;5.304;2023-02-15T06:45:25;0.61;90.76
66337;SHT30;53139;45.576;5.304;2023-02-15T06:48:26;0.47;91.01
66337;SHT30;53139;45.576;5.304;2023-02-15T06:51:26;0.36;91.80
66337;SHT30;53139;45.576;5.304;2023-02-15T06:54:27;0.49;92.75
66337;SHT30;53139;45.576;5.304;2023-02-15T06:57:27;0.46;92.70
66337;SHT30;53139;45.576;5.304;2023-02-15T07:00:28;0.20;90.03
66337;SHT30;53139;45.576;5.304;2023-02-15T07:03:28;0.27;91.28
66337;SHT30;53139;45.576;5.304;2023-02-15T07:06:33;0.43;91.78
66337;SHT30;53139;45.576;5.304;2023-02-15T07:09:33;0.75;92.03
66337;SHT30;53139;45.576;5.304;2023-02-15T07:12:34;0.85;92.77
66337;SHT30;53139;45.576;5.304;2023-02-15T07:15:45;0.96;92.12
66337;SHT30;53139;45.576;5.304;2023-02-15T07:18:46;0.93;92.15
66337;SHT30;53139;45.576;5.304;2023-02-15T07:21:46;1.15;90.88
66337;SHT30;53139;45.576;5.304;2023-02-15T07:24:47;1.13;90.48
66337;SHT30;53139;45.576;5.304;2023-02-15T07:27:58;1.15;90.66
66337;SHT30;53139;45.576;5.304;2023-02-15T07:31:01;1.22;91.01
66337;SHT30;53139;45.576;5.304;2023-02-15T07:34:02;1.23;91.65
66337;SHT30;53139;45.576;5.304;2023-02-15T07:37:02;1.48;91.29
66337;SHT30;53139;45.576;5.304;2023-02-15T07:40:03;1.65;91.28
66337;SHT30;53139;45.576;5.304;2023-02-15T07:43:03;1.79;90.44
66337;SHT30;53139;45.576;5.304;2023-02-15T07:46:06;1.95;89.45
66337;SHT30;53139;45.576;5.304;2023-02-15T07:49:11;2.16;89.04
66337;SHT30;53139;45.576;5.304;2023-02-15T07:52:12;2.40;88.36
66337;SHT30;53139;45.576;5.304;2023-02-15T07:55:12;2.55;87.78
66337;SHT30;53139;45.576;5.304;2023-02-15T07:58:12;2.81;87.24
66337;SHT30;53139;45.576;5.304;2023-02-15T08:01:14;3.06;86.30
66337;SHT30;53139;45.576;5.304;2023-02-15T08:04:14;3.28;85.73
66337;SHT30;53139;45.576;5.304;2023-02-15T08:07:15;3.61;84.83
66337;SHT30;53139;45.576;5.304;2023-02-15T08:10:15;3.86;83.90
66337;SHT30;53139;45.576;5.304;2023-02-15T08:13:36;4.17;83.92
66337;SHT30;53139;45.576;5.304;2023-02-15T08:16:55;4.54;83.26
66337;SHT30;53139;45.576;5.304;2023-02-15T08:19:56;4.88;82.50
66337;SHT30;53139;45.576;5.304;2023-02-15T08:22:57;5.15;82.13
66337;SHT30;53139;45.576;5.304;2023-02-15T08:25:59;5.33;80.46
66337;SHT30;53139;45.576;5.304;2023-02-15T08:29:00;5.44;80.73
66337;SHT30;53139;45.576;5.304;2023-02-15T08:32:06;5.47;81.22
66337;SHT30;53139;45.576;5.304;2023-02-15T08:35:07;5.79;80.26
66337;SHT30;53139;45.576;5.304;2023-02-15T08:38:07;5.92;79.48
66337;SHT30;53139;45.576;5.304;2023-02-15T08:41:19;6.44;79.09
66337;SHT30;53139;45.576;5.304;2023-02-15T08:44:19;7.43;77.22
66337;SHT30;53139;45.576;5.304;2023-02-15T08:47:20;7.83;75.62
66337;SHT30;53139;45.576;5.304;2023-02-15T08:50:21;8.26;74.91
66337;SHT30;53139;45.576;5.304;2023-02-15T08:53:21;8.62;72.83
66337;SHT30;53139;45.576;5.304;2023-02-15T08:56:24;9.23;71.53
66337;SHT30;53139;45.576;5.304;2023-02-15T08:59:26;9.10;70.47
66337;SHT30;53139;45.576;5.304;2023-02-15T09:02:27;9.90;70.19
66337;SHT30;53139;45.576;5.304;2023-02-15T09:05:27;10.00;68.00
66337;SHT30;53139;45.576;5.304;2023-02-15T09:08:28;10.41;66.05
66337;SHT30;53139;45.576;5.304;2023-02-15T09:11:30;10.52;65.23
66337;SHT30;53139;45.576;5.304;2023-02-15T09:14:31;11.28;64.99
66337;SHT30;53139;45.576;5.304;2023-02-15T09:17:31;10.95;62.64
66337;SHT30;53139;45.576;5.304;2023-02-15T09:20:35;11.35;62.31
66337;SHT30;53139;45.576;5.304;2023-02-15T09:23:36;11.35;62.01
66337;SHT30;53139;45.576;5.304;2023-02-15T09:26:39;12.26;62.50
66337;SHT30;53139;45.576;5.304;2023-02-15T09:29:40;12.36;60.36
66337;SHT30;53139;45.576;5.304;2023-02-15T09:32:41;12.51;58.77
66337;SHT30;53139;45.576;5.304;2023-02-15T09:35:41;12.91;58.21
66337;SHT30;53139;45.576;5.304;2023-02-15T09:38:42;13.12;58.29
66337;SHT30;53139;45.576;5.304;2023-02-15T09:58:43;14.12;52.56
66337;SHT30;53139;45.576;5.304;2023-02-15T10:09:17;14.84;53.91
66337;SHT30;53139;45.576;5.304;2023-02-15T10:22:36;15.90;49.32
66337;SHT30;53139;45.576;5.304;2023-02-15T10:25:47;16.10;48.75
66337;SHT30;53139;45.576;5.304;2023-02-15T10:32:25;16.43;50.84
66337;SHT30;53139;45.576;5.304;2023-02-15T10:35:37;17.33;48.13
66337;SHT30;53139;45.576;5.304;2023-02-15T10:39:00;17.26;48.13
66337;SHT30;53139;45.576;5.304;2023-02-15T10:45:31;16.94;46.56
66337;SHT30;53139;45.576;5.304;2023-02-15T10:52:03;18.61;42.77
66337;SHT30;53139;45.576;5.304;2023-02-15T10:55:23;19.04;44.48
66337;SHT30;53139;45.576;5.304;2023-02-15T11:01:51;18.70;44.88
66337;SHT30;53139;45.576;5.304;2023-02-15T11:08:18;18.45;37.75
66337;SHT30;53139;45.576;5.304;2023-02-15T11:11:32;17.94;37.74
66337;SHT30;53139;45.576;5.304;2023-02-15T11:14:43;18.87;38.21
66337;SHT30;53139;45.576;5.304;2023-02-15T11:17:50;18.92;37.68
66337;SHT30;53139;45.576;5.304;2023-02-15T11:24:09;18.81;38.42
66337;SHT30;53139;45.576;5.304;2023-02-15T11:30:42;18.25;39.76
66337;SHT30;53139;45.576;5.304;2023-02-15T11:33:48;17.56;38.91
66337;SHT30;53139;45.576;5.304;2023-02-15T11:36:52;17.33;40.04
66337;SHT30;53139;45.576;5.304;2023-02-15T11:39:53;18.11;38.28
66337;SHT30;53139;45.576;5.304;2023-02-15T11:43:02;17.05;40.79
66337;SHT30;53139;45.576;5.304;2023-02-15T11:46:03;17.57;40.66
66337;SHT30;53139;45.576;5.304;2023-02-15T11:49:28;19.14;39.09
66337;SHT30;53139;45.576;5.304;2023-02-15T11:52:29;19.29;38.41
66337;SHT30;53139;45.576;5.304;2023-02-15T11:55:30;17.97;38.78
66337;SHT30;53139;45.576;5.304;2023-02-15T11:58:45;18.87;39.25
66337;SHT30;53139;45.576;5.304;2023-02-15T12:01:47;20.21;36.56
66337;SHT30;53139;45.576;5.304;2023-02-15T12:05:00;19.26;37.58
66337;SHT30;53139;45.576;5.304;2023-02-15T12:08:13;17.83;40.06
66337;SHT30;53139;45.576;5.304;2023-02-15T12:11:22;18.49;39.89
66337;SHT30;53139;45.576;5.304;2023-02-15T12:14:26;18.22;39.31
66337;SHT30;53139;45.576;5.304;2023-02-15T12:17:29;18.32;39.53
66337;SHT30;53139;45.576;5.304;2023-02-15T12:20:32;18.60;37.62
66337;SHT30;53139;45.576;5.304;2023-02-15T12:23:34;18.90;37.84
66337;SHT30;53139;45.576;5.304;2023-02-15T12:26:40;17.98;38.77
66337;SHT30;53139;45.576;5.304;2023-02-15T12:29:43;18.15;38.81
66337;SHT30;53139;45.576;5.304;2023-02-15T12:32:51;18.18;39.07
66337;SHT30;53139;45.576;5.304;2023-02-15T12:35:59;19.80;36.27
66337;SHT30;53139;45.576;5.304;2023-02-15T12:42:16;20.11;35.30
66337;SHT30;53139;45.576;5.304;2023-02-15T12:45:29;18.50;37.58
66337;SHT30;53139;45.576;5.304;2023-02-15T12:48:30;18.54;37.76
66337;SHT30;53139;45.576;5.304;2023-02-15T12:51:30;19.40;36.46
66337;SHT30;53139;45.576;5.304;2023-02-15T12:57:34;19.63;36.18
66337;SHT30;53139;45.576;5.304;2023-02-15T13:00:35;19.92;34.95
66337;SHT30;53139;45.576;5.304;2023-02-15T13:03:38;18.56;34.78
66337;SHT30;53139;45.576;5.304;2023-02-15T13:06:47;19.45;33.58
66337;SHT30;53139;45.576;5.304;2023-02-15T13:09:49;19.04;33.66
66337;SHT30;53139;45.576;5.304;2023-02-15T13:12:50;20.11;34.22
66337;SHT30;53139;45.576;5.304;2023-02-15T13:15:58;18.95;34.85
66337;SHT30;53139;45.576;5.304;2023-02-15T13:19:05;19.95;34.43
66337;SHT30;53139;45.576;5.304;2023-02-15T13:22:12;19.38;35.46
66337;SHT30;53139;45.576;5.304;2023-02-15T13:25:18;19.36;34.47
66337;SHT30;53139;45.576;5.304;2023-02-15T13:28:23;19.94;34.72
66337;SHT30;53139;45.576;5.304;2023-02-15T13:31:27;19.67;34.59
66337;SHT30;53139;45.576;5.304;2023-02-15T13:34:38;19.38;34.20
66337;SHT30;53139;45.576;5.304;2023-02-15T13:41:06;17.85;35.71
66337;SHT30;53139;45.576;5.304;2023-02-15T13:44:15;18.28;36.79
66337;SHT30;53139;45.576;5.304;2023-02-15T13:54:07;16.56;38.15
66337;SHT30;53139;45.576;5.304;2023-02-15T14:01:19;16.02;38.29
66337;SHT30;53139;45.576;5.304;2023-02-15T14:04:31;15.98;39.45
66337;SHT30;53139;45.576;5.304;2023-02-15T14:18:15;17.62;37.68
66337;SHT30;53139;45.576;5.304;2023-02-15T14:21:32;17.05;39.33
66337;SHT30;53139;45.576;5.304;2023-02-15T14:24:46;17.02;39.80
66337;SHT30;53139;45.576;5.304;2023-02-15T14:31:50;18.35;38.84
66337;SHT30;53139;45.576;5.304;2023-02-15T14:34:58;18.95;37.93
66337;SHT30;53139;45.576;5.304;2023-02-15T14:44:30;18.52;35.65
66337;SHT30;53139;45.576;5.304;2023-02-15T14:47:36;17.92;36.09
66337;SHT30;53139;45.576;5.304;2023-02-15T14:50:46;18.90;35.89
66337;SHT30;53139;45.576;5.304;2023-02-15T14:53:46;19.95;36.16
66337;SHT30;53139;45.576;5.304;2023-02-15T15:00:31;18.98;37.32
66337;SHT30;53139;45.576;5.304;2023-02-15T15:03:34;17.53;38.22
66337;SHT30;53139;45.576;5.304;2023-02-15T15:06:38;18.94;36.90
66337;SHT30;53139;45.576;5.304;2023-02-15T15:09:41;18.74;37.79
66337;SHT30;53139;45.576;5.304;2023-02-15T15:12:53;19.90;36.09
66337;SHT30;53139;45.576;5.304;2023-02-15T15:15:54;18.57;37.32
66337;SHT30;53139;45.576;5.304;2023-02-15T15:18:55;18.52;37.32
66337;SHT30;53139;45.576;5.304;2023-02-15T15:21:56;18.78;37.74
66337;SHT30;53139;45.576;5.304;2023-02-15T15:28:02;19.28;36.44
66337;SHT30;53139;45.576;5.304;2023-02-15T15:31:43;18.12;37.59
66337;SHT30;53139;45.576;5.304;2023-02-15T15:48:33;16.60;37.60
66337;SHT30;53139;45.576;5.304;2023-02-15T15:51:40;16.64;38.19
66337;SHT30;53139;45.576;5.304;2023-02-15T15:54:41;16.78;38.33
66337;SHT30;53139;45.576;5.304;2023-02-15T15:57:44;16.50;37.49
66337;SHT30;53139;45.576;5.304;2023-02-15T16:00:56;16.16;38.40
66337;SHT30;53139;45.576;5.304;2023-02-15T16:03:59;16.54;38.29
66337;SHT30;53139;45.576;5.304;2023-02-15T16:10:27;16.45;38.41
66337;SHT30;53139;45.576;5.304;2023-02-15T16:13:27;15.85;39.33
66337;SHT30;53139;45.576;5.304;2023-02-15T16:16:29;15.70;39.46
66337;SHT30;53139;45.576;5.304;2023-02-15T16:19:33;15.25;39.95
66337;SHT30;53139;45.576;5.304;2023-02-15T16:22:35;15.03;40.94
66337;SHT30;53139;45.576;5.304;2023-02-15T16:25:45;14.77;41.62
66337;SHT30;53139;45.576;5.304;2023-02-15T16:28:49;14.65;42.22
66337;SHT30;53139;45.576;5.304;2023-02-15T16:32:02;14.22;43.30
66337;SHT30;53139;45.576;5.304;2023-02-15T16:35:13;13.95;44.10
66337;SHT30;53139;45.576;5.304;2023-02-15T16:38:14;13.82;44.81
66337;SHT30;53139;45.576;5.304;2023-02-15T16:41:17;13.57;45.07
66337;SHT30;53139;45.576;5.304;2023-02-15T16:44:21;13.58;45.14
66337;SHT30;53139;45.576;5.304;2023-02-15T16:47:27;13.47;45.31
66337;SHT30;53139;45.576;5.304;2023-02-15T16:50:34;13.26;45.15
66337;SHT30;53139;45.576;5.304;2023-02-15T16:53:36;12.82;46.04
66337;SHT30;53139;45.576;5.304;2023-02-15T16:56:37;12.64;47.03
66337;SHT30;53139;45.576;5.304;2023-02-15T16:59:41;12.50;46.72
66337;SHT30;53139;45.576;5.304;2023-02-15T17:03:03;12.37;47.10
66337;SHT30;53139;45.576;5.304;2023-02-15T17:06:19;12.16;47.45
66337;SHT30;53139;45.576;5.304;2023-02-15T17:09:20;11.83;47.75
66337;SHT30;53139;45.576;5.304;2023-02-15T17:12:48;11.77;48.31
66337;SHT30;53139;45.576;5.304;2023-02-15T17:19:04;11.89;49.33
66337;SHT30;53139;45.576;5.304;2023-02-15T17:22:17;11.48;50.43
66337;SHT30;53139;45.576;5.304;2023-02-15T17:25:21;11.40;51.06
66337;SHT30;53139;45.576;5.304;2023-02-15T17:28:26;11.20;51.79
66337;SHT30;53139;45.576;5.304;2023-02-15T17:31:32;11.07;52.04
66337;SHT30;53139;45.576;5.304;2023-02-15T17:34:40;11.13;52.63
66337;SHT30;53139;45.576;5.304;2023-02-15T17:37:47;11.12;53.39
66337;SHT30;53139;45.576;5.304;2023-02-15T17:40:48;10.98;54.19
66337;SHT30;53139;45.576;5.304;2023-02-15T17:43:48;10.72;55.10
66337;SHT30;53139;45.576;5.304;2023-02-15T17:46:48;10.96;54.65
66337;SHT30;53139;45.576;5.304;2023-02-15T17:49:49;10.89;55.15
66337;SHT30;53139;45.576;5.304;2023-02-15T17:52:51;10.72;55.58
66337;SHT30;53139;45.576;5.304;2023-02-15T17:55:51;10.65;56.21
66337;SHT30;53139;45.576;5.304;2023-02-15T17:58:52;10.61;56.84
66337;SHT30;53139;45.576;5.304;2023-02-15T18:01:52;10.40;57.80
66337;SHT30;53139;45.576;5.304;2023-02-15T18:05:14;10.29;58.17
66337;SHT30;53139;45.576;5.304;2023-02-15T18:08:33;10.20;57.99
66337;SHT30;53139;45.576;5.304;2023-02-15T18:11:52;9.82;58.21
66337;SHT30;53139;45.576;5.304;2023-02-15T18:14:54;9.37;59.30
66337;SHT30;53139;45.576;5.304;2023-02-15T18:17:55;9.37;59.91
66337;SHT30;53139;45.576;5.304;2023-02-15T18:20:56;8.73;62.20
66337;SHT30;53139;45.576;5.304;2023-02-15T18:23:56;8.72;62.62
66337;SHT30;53139;45.576;5.304;2023-02-15T18:26:56;8.80;63.18
66337;SHT30;53139;45.576;5.304;2023-02-15T18:29:57;8.60;64.00
66337;SHT30;53139;45.576;5.304;2023-02-15T18:32:58;8.61;63.98
66337;SHT30;53139;45.576;5.304;2023-02-15T18:36:01;8.20;63.65
66337;SHT30;53139;45.576;5.304;2023-02-15T18:39:02;8.19;63.05
66337;SHT30;53139;45.576;5.304;2023-02-15T18:42:03;8.07;62.57
66337;SHT30;53139;45.576;5.304;2023-02-15T18:48:14;7.61;65.52
66337;SHT30;53139;45.576;5.304;2023-02-15T18:51:19;7.41;66.99
66337;SHT30;53139;45.576;5.304;2023-02-15T18:54:22;7.50;66.95
66337;SHT30;53139;45.576;5.304;2023-02-15T18:57:23;7.54;65.28
66337;SHT30;53139;45.576;5.304;2023-02-15T19:03:29;7.28;66.22
66337;SHT30;53139;45.576;5.304;2023-02-15T19:06:30;7.16;66.46
66337;SHT30;53139;45.576;5.304;2023-02-15T19:09:30;6.91;67.57
66337;SHT30;53139;45.576;5.304;2023-02-15T19:12:31;6.89;66.65
66337;SHT30;53139;45.576;5.304;2023-02-15T19:15:32;7.12;67.10
66337;SHT30;53139;45.576;5.304;2023-02-15T19:18:32;6.72;68.35
66337;SHT30;53139;45.576;5.304;2023-02-15T19:21:33;6.71;68.62
66337;SHT30;53139;45.576;5.304;2023-02-15T19:24:39;6.67;66.68
66337;SHT30;53139;45.576;5.304;2023-02-15T19:27:40;6.54;68.02
66337;SHT30;53139;45.576;5.304;2023-02-15T19:30:41;6.36;68.51
66337;SHT30;53139;45.576;5.304;2023-02-15T19:33:41;6.38;68.09
66337;SHT30;53139;45.576;5.304;2023-02-15T19:36:43;6.12;70.64
66337;SHT30;53139;45.576;5.304;2023-02-15T19:39:44;6.17;71.02
66337;SHT30;53139;45.576;5.304;2023-02-15T19:42:45;6.34;71.09
66337;SHT30;53139;45.576;5.304;2023-02-15T19:45:45;6.40;70.10
66337;SHT30;53139;45.576;5.304;2023-02-15T19:48:47;6.24;68.91
66337;SHT30;53139;45.576;5.304;2023-02-15T19:51:48;5.84;70.16
66337;SHT30;53139;45.576;5.304;2023-02-15T19:54:48;5.93;71.55
66337;SHT30;53139;45.576;5.304;2023-02-15T19:57:50;5.93;72.53
66337;SHT30;53139;45.576;5.304;2023-02-15T20:00:51;5.71;71.89
66337;SHT30;53139;45.576;5.304;2023-02-15T20:03:51;5.65;71.48
66337;SHT30;53139;45.576;5.304;2023-02-15T20:06:55;5.55;69.87
66337;SHT30;53139;45.576;5.304;2023-02-15T20:09:56;5.48;71.40
66337;SHT30;53139;45.576;5.304;2023-02-15T20:12:57;5.34;70.53
66337;SHT30;53139;45.576;5.304;2023-02-15T20:15:57;5.15;73.33
66337;SHT30;53139;45.576;5.304;2023-02-15T20:19:00;5.31;73.27
66337;SHT30;53139;45.576;5.304;2023-02-15T20:22:00;5.09;74.53
66337;SHT30;53139;45.576;5.304;2023-02-15T20:25:00;5.03;72.43
66337;SHT30;53139;45.576;5.304;2023-02-15T20:28:01;4.69;74.60
66337;SHT30;53139;45.576;5.304;2023-02-15T20:31:02;4.79;74.71
66337;SHT30;53139;45.576;5.304;2023-02-15T20:34:02;4.84;73.77
66337;SHT30;53139;45.576;5.304;2023-02-15T20:37:03;4.57;75.78
66337;SHT30;53139;45.576;5.304;2023-02-15T20:40:18;4.82;74.53
66337;SHT30;53139;45.576;5.304;2023-02-15T20:43:19;4.62;75.39
66337;SHT30;53139;45.576;5.304;2023-02-15T20:46:19;4.57;71.91
66337;SHT30;53139;45.576;5.304;2023-02-15T20:49:21;4.72;73.29
66337;SHT30;53139;45.576;5.304;2023-02-15T20:52:23;4.60;74.60
66337;SHT30;53139;45.576;5.304;2023-02-15T20:55:28;4.62;75.27
66337;SHT30;53139;45.576;5.304;2023-02-15T20:58:29;4.54;75.72
66337;SHT30;53139;45.576;5.304;2023-02-15T21:01:30;4.64;74.69
66337;SHT30;53139;45.576;5.304;2023-02-15T21:04:32;4.51;75.70
66337;SHT30;53139;45.576;5.304;2023-02-15T21:07:33;4.29;77.21
66337;SHT30;53139;45.576;5.304;2023-02-15T21:10:33;4.24;77.17
66337;SHT30;53139;45.576;5.304;2023-02-15T21:13:34;4.33;77.36
66337;SHT30;53139;45.576;5.304;2023-02-15T21:16:34;4.29;77.17
66337;SHT30;53139;45.576;5.304;2023-02-15T21:19:35;4.34;76.08
66337;SHT30;53139;45.576;5.304;2023-02-15T21:22:35;4.20;76.50
66337;SHT30;53139;45.576;5.304;2023-02-15T21:25:37;4.13;76.26
66337;SHT30;53139;45.576;5.304;2023-02-15T21:28:37;3.99;75.99
66337;SHT30;53139;45.576;5.304;2023-02-15T21:31:39;3.75;78.61
66337;SHT30;53139;45.576;5.304;2023-02-15T21:34:39;3.82;78.41
66337;SHT30;53139;45.576;5.304;2023-02-15T21:37:41;3.83;77.49
66337;SHT30;53139;45.576;5.304;2023-02-15T21:40:43;3.85;76.73
66337;SHT30;53139;45.576;5.304;2023-02-15T21:43:43;3.55;77.98
66337;SHT30;53139;45.576;5.304;2023-02-15T21:47:02;3.19;79.75
66337;SHT30;53139;45.576;5.304;2023-02-15T21:50:23;3.08;80.53
66337;SHT30;53139;45.576;5.304;2023-02-15T21:53:44;3.12;80.76
66337;SHT30;53139;45.576;5.304;2023-02-15T21:56:46;3.27;78.96
66337;SHT30;53139;45.576;5.304;2023-02-15T21:59:47;3.30;78.41
66337;SHT30;53139;45.576;5.304;2023-02-15T22:02:51;3.22;78.83
66337;SHT30;53139;45.576;5.304;2023-02-15T22:05:52;3.05;78.87
66337;SHT30;53139;45.576;5.304;2023-02-15T22:08:52;2.91;78.71
66337;SHT30;53139;45.576;5.304;2023-02-15T22:11:53;2.72;80.55